createdAt,value
2018-02-04T00:00:32.563Z,4.50
2018-02-04T00:03:00.237Z,4.23
2018-02-04T00:05:27.972Z,4.57
2018-02-04T00:07:56.029Z,5.57
2018-02-04T00:10:23.926Z,4.03
2018-02-04T00:12:52.040Z,5.50
2018-02-04T00:15:20.100Z,4.23
2018-02-04T00:17:48.988Z,6.83
2018-02-04T00:20:16.677Z,6.33
2018-02-04T00:22:44.331Z,4.87
2018-02-04T00:25:11.983Z,5.37
2018-02-04T00:27:39.591Z,7.03
2018-02-04T00:30:07.262Z,3.97
2018-02-04T00:32:34.874Z,6.33
2018-02-04T00:35:02.467Z,5.63
2018-02-04T00:37:30.171Z,7.40
2018-02-04T00:39:57.889Z,5.20
2018-02-04T00:42:25.947Z,4.10
2018-02-04T00:44:54.445Z,5.07
2018-02-04T00:47:22.024Z,3.20
2018-02-04T00:49:49.605Z,3.50
2018-02-04T00:52:17.452Z,3.83
2018-02-04T00:54:45.057Z,5.47
2018-02-04T00:57:12.650Z,3.60
2018-02-04T00:59:40.313Z,4.10
2018-02-04T01:02:07.898Z,3.60
2018-02-04T01:04:35.499Z,3.93
2018-02-04T01:07:03.265Z,4.13
2018-02-04T01:09:30.858Z,3.13
2018-02-04T01:11:58.697Z,5.00
2018-02-04T01:14:26.353Z,4.73
2018-02-04T01:16:53.951Z,4.10
2018-02-04T01:19:21.542Z,4.17
2018-02-04T01:21:49.179Z,5.07
2018-02-04T01:24:16.783Z,5.67
2018-02-04T01:26:44.386Z,5.67
2018-02-04T01:29:12.945Z,3.97
2018-02-04T01:31:41.030Z,6.00
2018-02-04T01:34:08.596Z,6.00
2018-02-04T01:36:36.240Z,4.47
2018-02-04T01:39:06.000Z,4.77
2018-02-04T01:41:33.597Z,6.80
2018-02-04T01:44:01.409Z,6.63
2018-02-04T01:46:29.031Z,5.03
2018-02-04T01:48:56.636Z,6.27
2018-02-04T01:51:24.293Z,7.10
2018-02-04T01:53:51.901Z,5.03
2018-02-04T01:56:19.486Z,5.53
2018-02-04T01:58:47.136Z,6.10
2018-02-04T02:01:14.734Z,7.03
2018-02-04T02:03:42.513Z,5.10
2018-02-04T02:06:10.195Z,6.00
2018-02-04T02:08:37.802Z,4.93
2018-02-04T02:11:05.469Z,4.97
2018-02-04T02:13:33.168Z,7.37
2018-02-04T02:16:01.740Z,4.17
2018-02-04T02:18:29.371Z,5.57
2018-02-04T02:20:57.275Z,6.37
2018-02-04T02:23:24.891Z,6.73
2018-02-04T02:25:52.475Z,6.17
2018-02-04T02:28:20.209Z,5.13
2018-02-04T02:30:48.359Z,5.17
2018-02-04T02:33:16.788Z,8.30
2018-02-04T02:35:44.521Z,6.33
2018-02-04T02:38:12.159Z,8.77
2018-02-04T02:40:39.806Z,6.90
2018-02-04T02:43:07.533Z,5.47
2018-02-04T02:45:35.256Z,8.50
2018-02-04T02:48:02.868Z,7.33
2018-02-04T02:50:30.538Z,6.23
2018-02-04T02:52:58.176Z,7.67
2018-02-04T02:55:25.751Z,6.17
2018-02-04T02:57:53.399Z,8.10
2018-02-04T03:00:20.976Z,6.67
2018-02-04T03:02:48.618Z,6.43
2018-02-04T03:05:16.255Z,6.20
2018-02-04T03:07:43.897Z,8.27
2018-02-04T03:10:11.539Z,7.73
2018-02-04T03:12:39.340Z,6.23
2018-02-04T03:15:06.958Z,8.37
2018-02-04T03:17:34.626Z,8.13
2018-02-04T03:20:02.512Z,6.37
2018-02-04T03:22:30.096Z,5.93
2018-02-04T03:24:58.638Z,7.63
2018-02-04T03:27:26.369Z,7.13
2018-02-04T03:29:53.998Z,5.27
2018-02-04T03:32:21.572Z,8.30
2018-02-04T03:34:49.222Z,6.33
2018-02-04T03:37:16.820Z,7.97
2018-02-04T03:39:44.423Z,6.70
2018-02-04T03:42:12.117Z,6.90
2018-02-04T03:44:39.705Z,6.43
2018-02-04T03:47:07.682Z,7.63
2018-02-04T03:49:35.312Z,5.83
2018-02-04T03:52:02.880Z,7.43
2018-02-04T03:54:30.477Z,7.03
2018-02-04T03:56:58.224Z,5.60
2018-02-04T03:59:25.821Z,5.67
2018-02-04T04:01:54.468Z,5.67
2018-02-04T04:04:22.112Z,6.67
2018-02-04T04:06:49.689Z,4.60
2018-02-04T04:09:17.712Z,5.93
2018-02-04T04:11:45.348Z,8.57
2018-02-04T04:14:12.954Z,6.37
2018-02-04T04:16:40.558Z,6.30
2018-02-04T04:19:08.424Z,5.87
2018-02-04T04:21:36.044Z,5.63
2018-02-04T04:24:03.654Z,9.23
2018-02-04T04:26:31.429Z,7.00
2018-02-04T04:28:59.019Z,5.30
2018-02-04T04:31:27.562Z,7.10
2018-02-04T04:33:55.956Z,6.17
2018-02-04T04:36:23.703Z,4.87
2018-02-04T04:38:51.395Z,5.80
2018-02-04T04:41:19.053Z,5.07
2018-02-04T04:43:46.635Z,6.83
2018-02-04T04:46:14.232Z,5.57
2018-02-04T04:48:41.981Z,5.80
2018-02-04T04:51:09.586Z,7.90
2018-02-04T04:53:37.159Z,5.83
2018-02-04T04:56:05.090Z,7.17
2018-02-04T04:58:32.664Z,6.17
2018-02-04T05:01:00.230Z,6.90
2018-02-04T05:03:28.008Z,7.93
2018-02-04T05:05:55.585Z,5.60
2018-02-04T05:08:23.767Z,5.27
2018-02-04T05:10:51.415Z,5.67
2018-02-04T05:13:18.990Z,4.53
2018-02-04T05:15:46.593Z,5.70
2018-02-04T05:18:14.239Z,7.30
2018-02-04T05:20:41.812Z,5.43
2018-02-04T05:23:10.185Z,5.20
2018-02-04T05:25:37.808Z,6.37
2018-02-04T05:28:05.449Z,2.93
2018-02-04T05:30:33.032Z,4.43
2018-02-04T05:33:00.673Z,2.70
2018-02-04T05:35:28.239Z,3.30
2018-02-04T05:37:55.804Z,1.80
2018-02-04T05:40:23.453Z,1.20
2018-02-04T05:42:51.045Z,1.10
2018-02-04T05:45:18.609Z,1.53
2018-02-04T05:47:46.259Z,1.80
2018-02-04T05:50:13.971Z,1.60
2018-02-04T05:52:41.546Z,0.93
2018-02-04T05:55:09.281Z,1.37
2018-02-04T05:57:36.900Z,1.03
2018-02-04T06:00:04.538Z,1.33
2018-02-04T06:02:32.155Z,1.33
2018-02-04T06:04:59.735Z,0.50
2018-02-04T06:07:27.365Z,1.07
2018-02-04T06:09:54.986Z,1.17
2018-02-04T06:12:22.546Z,1.40
2018-02-04T06:14:50.111Z,0.43
2018-02-04T06:17:17.909Z,0.87
2018-02-04T06:19:45.513Z,1.13
2018-02-04T06:22:13.126Z,1.87
2018-02-04T06:24:41.046Z,0.30
2018-02-04T06:27:08.631Z,0.70
2018-02-04T06:29:36.219Z,0.87
2018-02-04T06:32:03.835Z,1.20
2018-02-04T06:34:31.494Z,0.70
2018-02-04T06:36:59.084Z,0.20
2018-02-04T06:39:26.708Z,0.30
2018-02-04T06:41:54.348Z,1.00
2018-02-04T06:44:22.856Z,0.67
2018-02-04T06:46:50.499Z,0.70
2018-02-04T06:49:18.087Z,0.63
2018-02-04T06:51:45.732Z,1.43
2018-02-04T06:54:13.435Z,1.20
2018-02-04T06:56:41.004Z,0.37
2018-02-04T06:59:08.588Z,3.07
2018-02-04T07:01:36.224Z,1.40
2018-02-04T07:04:03.818Z,0.30
2018-02-04T07:06:31.377Z,0.57
2018-02-04T07:08:59.032Z,0.50
2018-02-04T07:11:26.597Z,0.43
2018-02-04T07:13:54.149Z,0.60
2018-02-04T07:16:22.085Z,1.13
2018-02-04T07:18:49.646Z,0.77
2018-02-04T07:21:17.197Z,0.57
2018-02-04T07:23:44.936Z,0.50
2018-02-04T07:26:12.524Z,0.70
2018-02-04T07:28:40.127Z,2.87
2018-02-04T07:31:07.728Z,0.87
2018-02-04T07:33:35.284Z,1.30
2018-02-04T07:36:02.911Z,0.60
2018-02-04T07:38:30.535Z,0.77
2018-02-04T07:40:58.097Z,0.90
2018-02-04T07:43:25.686Z,1.10
2018-02-04T07:45:53.343Z,0.90
2018-02-04T07:48:20.905Z,1.60
2018-02-04T07:50:48.514Z,0.53
2018-02-04T07:53:16.525Z,0.57
2018-02-04T07:55:47.746Z,1.30
2018-02-04T07:58:15.370Z,1.00
2018-02-04T08:00:43.133Z,0.47
2018-02-04T08:03:10.716Z,1.53
2018-02-04T08:05:38.284Z,0.80
2018-02-04T08:08:06.123Z,0.40
2018-02-04T08:10:33.769Z,0.57
2018-02-04T08:13:01.414Z,0.70
2018-02-04T08:15:29.029Z,0.80
2018-02-04T08:17:56.651Z,0.47
2018-02-04T08:20:24.219Z,1.27
2018-02-04T08:22:51.843Z,0.97
2018-02-04T08:25:19.409Z,1.97
2018-02-04T08:27:46.970Z,4.13
2018-02-04T08:30:14.604Z,6.17
2018-02-04T08:32:42.189Z,5.43
2018-02-04T08:35:09.888Z,6.60
2018-02-04T08:37:37.670Z,8.23
2018-02-04T08:40:05.246Z,12.40
2018-02-04T08:42:33.507Z,14.83
2018-02-04T08:45:01.137Z,17.07
2018-02-04T08:47:28.724Z,15.23
2018-02-04T08:49:56.303Z,10.37
2018-02-04T08:52:24.043Z,10.57
2018-02-04T08:54:51.751Z,3.10
2018-02-04T08:57:19.313Z,6.97
2018-02-04T08:59:47.176Z,36.43
2018-02-04T09:02:14.769Z,123.83
2018-02-04T09:04:42.338Z,9.27
2018-02-04T09:07:09.984Z,3.87
2018-02-04T09:09:37.637Z,9.10
2018-02-04T09:12:05.226Z,10.90
2018-02-04T09:14:32.949Z,7.60
2018-02-04T09:17:00.540Z,5.60
2018-02-04T09:19:28.160Z,5.97
2018-02-04T09:21:55.786Z,6.10
2018-02-04T09:24:23.346Z,5.47
2018-02-04T09:26:50.979Z,13.33
2018-02-04T09:29:18.821Z,17.13
2018-02-04T09:31:46.426Z,10.07
2018-02-04T09:34:14.027Z,12.37
2018-02-04T09:36:41.668Z,9.30
2018-02-04T09:39:09.250Z,13.83
2018-02-04T09:41:36.841Z,8.27
2018-02-04T09:44:04.477Z,2.67
2018-02-04T09:46:32.036Z,3.87
2018-02-04T09:48:59.605Z,4.63
2018-02-04T09:51:27.325Z,7.53
2018-02-04T09:53:54.900Z,5.53
2018-02-04T09:56:22.553Z,6.80
2018-02-04T09:58:50.542Z,8.30
2018-02-04T10:01:18.125Z,10.93
2018-02-04T10:03:45.693Z,3.70
2018-02-04T10:06:13.334Z,1.80
2018-02-04T10:08:40.902Z,1.83
2018-02-04T10:11:09.389Z,2.50
2018-02-04T10:13:37.016Z,2.47
2018-02-04T10:16:04.650Z,1.47
2018-02-04T10:18:32.237Z,1.70
2018-02-04T10:20:59.864Z,2.23
2018-02-04T10:23:27.423Z,1.87
2018-02-04T10:25:55.052Z,5.10
2018-02-04T10:28:22.794Z,3.90
2018-02-04T10:30:50.457Z,3.90
2018-02-04T10:33:17.331Z,1.60
2018-02-04T10:35:44.953Z,1.20
2018-02-04T10:38:12.538Z,1.97
2018-02-04T10:40:40.096Z,1.57
2018-02-04T10:43:08.005Z,1.50
2018-02-04T10:45:35.568Z,1.37
2018-02-04T10:48:03.162Z,1.20
2018-02-04T10:50:30.849Z,1.00
2018-02-04T10:52:58.465Z,1.13
2018-02-04T10:55:26.085Z,1.93
2018-02-04T10:57:53.925Z,1.83
2018-02-04T11:00:21.504Z,1.10
2018-02-04T11:02:49.059Z,3.60
2018-02-04T11:05:16.758Z,1.23
2018-02-04T11:07:44.341Z,1.33
2018-02-04T11:10:11.993Z,2.17
2018-02-04T11:12:39.641Z,2.30
2018-02-04T11:15:07.220Z,2.73
2018-02-04T11:17:34.783Z,2.93
2018-02-04T11:20:02.431Z,2.33
2018-02-04T11:22:30.028Z,3.43
2018-02-04T11:24:57.614Z,2.43
2018-02-04T11:27:24.997Z,2.00
2018-02-04T11:29:52.623Z,2.40
2018-02-04T11:32:21.309Z,2.13
2018-02-04T11:34:48.983Z,1.07
2018-02-04T11:37:16.549Z,1.20
2018-02-04T11:39:44.192Z,0.80
2018-02-04T11:42:11.815Z,0.67
2018-02-04T11:44:39.474Z,2.60
2018-02-04T11:47:07.068Z,2.00
2018-02-04T11:49:34.707Z,0.50
2018-02-04T11:52:02.305Z,1.60
2018-02-04T11:54:30.031Z,0.70
2018-02-04T11:56:57.659Z,0.43
2018-02-04T11:59:25.524Z,0.50
2018-02-04T12:01:53.080Z,1.00
2018-02-04T12:04:20.757Z,1.83
2018-02-04T12:06:48.328Z,1.73
2018-02-04T12:09:15.898Z,0.43
2018-02-04T12:11:43.501Z,1.77
2018-02-04T12:14:11.325Z,0.67
2018-02-04T12:16:38.933Z,1.80
2018-02-04T12:19:06.627Z,0.63
2018-02-04T12:21:34.304Z,1.30
2018-02-04T12:24:01.938Z,0.70
2018-02-04T12:26:29.671Z,1.53
2018-02-04T12:28:57.257Z,0.93
2018-02-04T12:31:24.826Z,1.20
2018-02-04T12:33:52.546Z,1.00
2018-02-04T12:36:20.126Z,2.40
2018-02-04T12:38:47.680Z,1.30
2018-02-04T12:41:15.309Z,1.60
2018-02-04T12:43:42.877Z,5.40
2018-02-04T12:46:10.510Z,0.70
2018-02-04T12:48:38.131Z,3.00
2018-02-04T12:51:05.723Z,1.90
2018-02-04T12:53:35.432Z,1.60
2018-02-04T12:56:03.217Z,3.07
2018-02-04T12:58:30.780Z,5.70
2018-02-04T13:00:58.400Z,4.90
2018-02-04T13:03:26.004Z,5.67
2018-02-04T13:05:53.577Z,12.37
2018-02-04T13:08:21.640Z,9.57
2018-02-04T13:10:49.271Z,8.00
2018-02-04T13:13:17.238Z,9.57
2018-02-04T13:15:44.852Z,12.73
2018-02-04T13:18:12.704Z,10.20
2018-02-04T13:20:40.269Z,9.77
2018-02-04T13:23:08.686Z,7.73
2018-02-04T13:25:36.388Z,4.60
2018-02-04T13:28:05.145Z,4.40
2018-02-04T13:30:32.732Z,4.00
2018-02-04T13:33:00.376Z,4.90
2018-02-04T13:35:27.984Z,6.07
2018-02-04T13:37:55.675Z,7.20
2018-02-04T13:40:23.481Z,8.07
2018-02-04T13:42:51.064Z,9.43
2018-02-04T13:45:18.644Z,8.83
2018-02-04T13:47:46.261Z,9.00
2018-02-04T13:50:13.862Z,4.90
2018-02-04T13:52:41.474Z,5.23
2018-02-04T13:55:10.213Z,7.07
2018-02-04T13:57:37.805Z,11.43
2018-02-04T14:00:05.496Z,24.47
2018-02-04T14:02:33.315Z,24.90
2018-02-04T14:05:00.890Z,18.87
2018-02-04T14:07:28.495Z,19.30
2018-02-04T14:09:56.219Z,8.60
2018-02-04T14:12:24.324Z,6.70
2018-02-04T14:14:51.922Z,6.30
2018-02-04T14:17:19.568Z,11.23
2018-02-04T14:19:47.199Z,3.57
2018-02-04T14:22:14.809Z,9.60
2018-02-04T14:24:42.469Z,7.60
2018-02-04T14:27:10.064Z,7.50
2018-02-04T14:29:37.668Z,7.67
2018-02-04T14:32:05.300Z,10.10
2018-02-04T14:34:32.876Z,5.67
2018-02-04T14:37:00.537Z,8.10
2018-02-04T14:39:28.165Z,10.00
2018-02-04T14:41:55.776Z,11.67
2018-02-04T14:44:23.418Z,11.13
2018-02-04T14:46:51.084Z,8.10
2018-02-04T14:49:18.670Z,8.83
2018-02-04T14:51:46.250Z,9.20
2018-02-04T14:54:14.214Z,10.47
2018-02-04T14:56:41.845Z,24.57
2018-02-04T14:59:09.445Z,29.03
2018-02-04T15:01:37.069Z,29.77
2018-02-04T15:04:04.832Z,27.40
2018-02-04T15:06:32.436Z,51.50
2018-02-04T15:09:00.084Z,35.00
2018-02-04T15:11:27.674Z,39.17
2018-02-04T15:13:55.262Z,28.47
2018-02-04T15:16:22.973Z,25.30
2018-02-04T15:18:50.579Z,17.07
2018-02-04T15:21:18.160Z,14.33
2018-02-04T15:23:45.893Z,22.27
2018-02-04T15:26:13.510Z,19.17
2018-02-04T15:28:41.098Z,22.60
2018-02-04T15:31:08.776Z,21.73
2018-02-04T15:33:36.357Z,22.17
2018-02-04T15:36:03.972Z,22.13
2018-02-04T15:38:31.949Z,24.83
2018-02-04T15:40:59.524Z,22.77
2018-02-04T15:43:27.121Z,27.13
2018-02-04T15:45:54.744Z,25.77
2018-02-04T15:48:22.336Z,24.33
2018-02-04T15:50:49.943Z,21.90
2018-02-04T15:53:17.609Z,22.90
2018-02-04T15:55:45.201Z,19.60
2018-02-04T15:58:13.126Z,18.53
2018-02-04T16:00:41.001Z,17.53
2018-02-04T16:03:08.626Z,19.43
2018-02-04T16:05:36.250Z,21.20
2018-02-04T16:08:04.446Z,20.27
2018-02-04T16:10:32.668Z,22.10
2018-02-04T16:13:00.318Z,25.93
2018-02-04T16:15:28.091Z,24.10
2018-02-04T16:17:55.806Z,29.37
2018-02-04T16:20:23.403Z,28.90
2018-02-04T16:22:51.117Z,30.13
2018-02-04T16:25:18.693Z,28.47
2018-02-04T16:27:46.273Z,31.83
2018-02-04T16:30:13.973Z,30.23
2018-02-04T16:32:41.575Z,31.90
2018-02-04T16:35:09.151Z,37.20
2018-02-04T16:37:36.804Z,36.37
2018-02-04T16:40:04.483Z,38.33
2018-02-04T16:42:32.072Z,35.20
2018-02-04T16:44:59.702Z,29.50
2018-02-04T16:47:27.327Z,26.00
2018-02-04T16:49:54.916Z,22.80
2018-02-04T16:52:22.621Z,21.83
2018-02-04T16:54:50.388Z,16.90
2018-02-04T16:57:18.066Z,17.30
2018-02-04T16:59:45.696Z,22.17
2018-02-04T17:02:13.283Z,16.33
2018-02-04T17:04:40.866Z,27.63
2018-02-04T17:07:08.720Z,12.07
2018-02-04T17:09:36.296Z,10.43
2018-02-04T17:12:03.914Z,12.73
2018-02-04T17:14:31.886Z,17.07
2018-02-04T17:16:59.528Z,8.80
2018-02-04T17:19:27.101Z,8.73
2018-02-04T17:21:54.752Z,7.73
2018-02-04T17:24:22.354Z,7.57
2018-02-04T17:26:50.013Z,6.63
2018-02-04T17:29:18.005Z,6.23
2018-02-04T17:31:45.650Z,7.80
2018-02-04T17:34:13.372Z,12.07
2018-02-04T17:36:41.044Z,15.63
2018-02-04T17:39:11.488Z,17.53
2018-02-04T17:41:42.861Z,13.67
2018-02-04T17:44:10.488Z,10.23
2018-02-04T17:46:38.293Z,12.77
2018-02-04T17:49:06.203Z,12.07
2018-02-04T17:51:33.827Z,14.73
2018-02-04T17:54:01.476Z,20.63
2018-02-04T17:56:29.186Z,20.50
2018-02-04T17:58:57.047Z,18.50
2018-02-04T18:01:24.702Z,18.03
2018-02-04T18:03:55.387Z,20.33
2018-02-04T18:06:23.228Z,29.17
2018-02-04T18:08:51.015Z,25.10
2018-02-04T18:11:18.841Z,16.67
2018-02-04T18:13:46.525Z,16.80
2018-02-04T18:16:14.252Z,15.00
2018-02-04T18:18:42.064Z,22.97
2018-02-04T18:21:09.921Z,24.90
2018-02-04T18:23:37.707Z,31.87
2018-02-04T18:26:05.405Z,34.60
2018-02-04T18:28:33.041Z,36.30
2018-02-04T18:31:00.691Z,38.27
2018-02-04T18:33:28.364Z,45.70
2018-02-04T18:35:56.110Z,37.53
2018-02-04T18:38:23.754Z,31.80
2018-02-04T18:40:51.582Z,33.43
2018-02-04T18:43:19.502Z,28.93
2018-02-04T18:45:47.166Z,30.77
2018-02-04T18:48:15.075Z,31.93
2018-02-04T18:50:42.715Z,28.80
2018-02-04T18:53:11.034Z,28.40
2018-02-04T18:55:38.860Z,30.27
2018-02-04T18:58:06.490Z,26.37
2018-02-04T19:00:34.104Z,23.23
2018-02-04T19:03:01.732Z,25.70
2018-02-04T19:05:29.400Z,23.67
2018-02-04T19:07:56.996Z,22.27
2018-02-04T19:10:24.977Z,24.13
2018-02-04T19:12:53.282Z,25.93
2018-02-04T19:15:20.897Z,28.80
2018-02-04T19:17:48.637Z,25.10
2018-02-04T19:20:16.284Z,25.97
2018-02-04T19:22:43.911Z,31.00
2018-02-04T19:25:11.875Z,28.07
2018-02-04T19:27:39.452Z,31.33
2018-02-04T19:30:07.086Z,30.20
2018-02-04T19:32:35.199Z,36.80
2018-02-04T19:35:02.913Z,39.27
2018-02-04T19:37:30.534Z,42.50
2018-02-04T19:39:58.203Z,42.53
2018-02-04T19:42:25.935Z,74.80
2018-02-04T19:44:53.512Z,63.50
2018-02-04T19:47:21.165Z,58.77
2018-02-04T19:49:48.757Z,56.57
2018-02-04T19:52:16.355Z,55.17
2018-02-04T19:54:44.052Z,54.50
2018-02-04T19:57:11.637Z,48.97
2018-02-04T19:59:39.238Z,50.00
2018-02-04T20:02:06.913Z,51.60
2018-02-04T20:04:34.598Z,57.80
2018-02-04T20:07:02.187Z,50.00
2018-02-04T20:09:30.062Z,52.57
2018-02-04T20:11:58.052Z,45.53
2018-02-04T20:14:25.692Z,40.83
2018-02-04T20:16:54.140Z,39.17
2018-02-04T20:19:22.326Z,40.47
2018-02-04T20:21:58.825Z,40.53
2018-02-04T20:24:38.135Z,34.33
2018-02-04T20:27:19.491Z,32.77
2018-02-04T20:30:01.435Z,30.33
2018-02-04T20:32:43.206Z,28.17
2018-02-04T20:35:11.696Z,28.00
2018-02-04T20:37:39.282Z,24.47
2018-02-04T20:40:06.936Z,21.37
2018-02-04T20:42:34.564Z,19.73
2018-02-04T20:45:02.206Z,17.20
2018-02-04T20:47:29.866Z,17.63
2018-02-04T20:49:57.476Z,17.23
2018-02-04T20:52:25.087Z,16.83
2018-02-04T20:54:52.944Z,16.70
2018-02-04T20:57:20.598Z,15.77
2018-02-04T20:59:48.218Z,13.67
2018-02-04T21:02:15.857Z,13.37
2018-02-04T21:04:44.618Z,13.20
2018-02-04T21:07:12.237Z,14.07
2018-02-04T21:09:39.895Z,14.67
2018-02-04T21:12:07.822Z,17.53
2018-02-04T21:14:35.495Z,18.83
2018-02-04T21:17:03.313Z,19.00
2018-02-04T21:19:30.893Z,20.27
2018-02-04T21:21:58.896Z,27.77
2018-02-04T21:24:26.575Z,26.20
2018-02-04T21:26:54.165Z,23.47
2018-02-04T21:29:21.815Z,15.87
2018-02-04T21:31:49.614Z,13.37
2018-02-04T21:34:17.192Z,13.97
2018-02-04T21:36:44.793Z,11.13
2018-02-04T21:39:13.492Z,12.70
2018-02-04T21:41:41.075Z,14.17
2018-02-04T21:44:08.655Z,12.67
2018-02-04T21:46:36.290Z,10.90
2018-02-04T21:49:04.546Z,11.23
2018-02-04T21:51:32.198Z,11.57
2018-02-04T21:53:59.841Z,10.90
2018-02-04T21:56:27.524Z,11.43
2018-02-04T21:58:55.103Z,10.43
2018-02-04T22:01:22.767Z,8.47
2018-02-04T22:03:50.356Z,10.63
2018-02-04T22:06:17.936Z,9.83
2018-02-04T22:08:45.870Z,11.07
2018-02-04T22:11:13.498Z,12.17
2018-02-04T22:13:41.142Z,10.63
2018-02-04T22:16:08.756Z,10.80
2018-02-04T22:18:37.321Z,10.07
2018-02-04T22:21:04.892Z,10.23
2018-02-04T22:23:32.633Z,10.13
2018-02-04T22:26:00.818Z,11.03
2018-02-04T22:28:28.397Z,10.00
2018-02-04T22:30:56.060Z,10.77
2018-02-04T22:33:23.632Z,10.53
2018-02-04T22:35:51.208Z,11.47
2018-02-04T22:38:20.147Z,12.00
2018-02-04T22:40:47.728Z,10.27
2018-02-04T22:43:16.011Z,11.83
2018-02-04T22:45:44.517Z,11.57
2018-02-04T22:48:12.166Z,10.20
2018-02-04T22:50:39.789Z,10.97
2018-02-04T22:53:07.530Z,10.13
2018-02-04T22:55:36.109Z,11.90
2018-02-04T22:58:03.767Z,10.23
2018-02-04T23:00:31.483Z,11.97
2018-02-04T23:02:59.158Z,10.97
2018-02-04T23:05:26.749Z,9.13
2018-02-04T23:07:54.377Z,9.77
2018-02-04T23:10:22.021Z,9.90
2018-02-04T23:12:49.614Z,9.60
2018-02-04T23:15:17.368Z,10.30
2018-02-04T23:17:44.960Z,10.13
2018-02-04T23:20:13.406Z,10.80
2018-02-04T23:22:41.098Z,11.33
2018-02-04T23:25:11.571Z,10.53
2018-02-04T23:27:39.253Z,10.13
2018-02-04T23:30:07.173Z,8.60
2018-02-04T23:32:34.751Z,10.03
2018-02-04T23:35:02.366Z,9.47
2018-02-04T23:37:30.007Z,10.80
2018-02-04T23:39:57.569Z,8.90
2018-02-04T23:42:25.204Z,9.27
2018-02-04T23:44:53.480Z,11.00
2018-02-04T23:47:21.049Z,11.47
2018-02-04T23:49:48.606Z,9.60
2018-02-04T23:52:16.285Z,9.73
2018-02-04T23:54:43.924Z,9.40
2018-02-04T23:57:11.496Z,8.30
2018-02-04T23:59:39.107Z,8.40
